createdAt,value
2022-08-25T00:00:19.568Z,20.84
2022-08-25T00:02:55.233Z,20.87
2022-08-25T00:05:26.319Z,20.87
2022-08-25T00:07:56.140Z,20.81
2022-08-25T00:10:24.819Z,20.84
2022-08-25T00:12:53.700Z,20.94
2022-08-25T00:15:23.907Z,20.90
2022-08-25T00:17:52.773Z,20.86
2022-08-25T00:20:21.752Z,20.83
2022-08-25T00:22:50.285Z,20.83
2022-08-25T00:25:19.382Z,20.85
2022-08-25T00:27:48.663Z,20.78
2022-08-25T00:33:49.529Z,20.73
2022-08-25T00:36:18.837Z,20.73
2022-08-25T00:38:49.772Z,20.68
2022-08-25T00:41:23.612Z,20.70
2022-08-25T00:44:01.812Z,20.65
2022-08-25T00:46:35.947Z,20.60
2022-08-25T00:49:24.856Z,20.65
2022-08-25T00:52:00.325Z,20.65
2022-08-25T00:54:40.918Z,20.58
2022-08-25T00:57:12.949Z,20.53
2022-08-25T00:59:42.971Z,20.54
2022-08-25T01:02:15.403Z,20.52
2022-08-25T01:04:48.621Z,20.49
2022-08-25T01:07:20.910Z,20.48
2022-08-25T01:09:53.370Z,20.52
2022-08-25T01:12:22.794Z,20.45
2022-08-25T01:14:51.618Z,20.43
2022-08-25T01:17:20.782Z,20.38
2022-08-25T01:19:49.609Z,20.34
2022-08-25T01:22:18.689Z,20.33
2022-08-25T01:25:00.009Z,20.35
2022-08-25T01:27:28.483Z,20.34
2022-08-25T01:29:57.986Z,20.29
2022-08-25T01:32:26.553Z,20.27
2022-08-25T01:34:55.093Z,20.24
2022-08-25T01:37:23.496Z,20.22
2022-08-25T01:39:52.092Z,20.21
2022-08-25T01:42:59.623Z,20.25
2022-08-25T01:45:28.901Z,20.17
2022-08-25T01:47:57.488Z,20.13
2022-08-25T01:50:25.929Z,20.17
2022-08-25T01:53:06.340Z,20.10
2022-08-25T01:55:51.685Z,20.08
2022-08-25T01:58:25.791Z,20.12
2022-08-25T02:00:57.621Z,20.14
2022-08-25T02:03:27.103Z,20.13
2022-08-25T02:05:56.344Z,20.04
2022-08-25T02:08:25.771Z,20.04
2022-08-25T02:10:55.669Z,19.94
2022-08-25T02:13:26.990Z,19.90
2022-08-25T02:16:02.314Z,19.86
2022-08-25T02:18:31.416Z,19.81
2022-08-25T02:20:59.864Z,19.84
2022-08-25T02:23:28.466Z,19.83
2022-08-25T02:25:58.069Z,19.86
2022-08-25T02:28:26.812Z,19.83
2022-08-25T02:31:01.659Z,19.80
2022-08-25T02:33:30.407Z,19.80
2022-08-25T02:36:00.886Z,19.79
2022-08-25T02:38:30.669Z,19.75
2022-08-25T02:41:01.166Z,19.77
2022-08-25T02:43:30.157Z,19.81
2022-08-25T02:45:59.370Z,19.78
2022-08-25T02:48:28.589Z,19.71
2022-08-25T02:50:57.026Z,19.68
2022-08-25T02:53:25.434Z,19.64
2022-08-25T02:55:53.825Z,19.65
2022-08-25T02:58:22.546Z,19.66
2022-08-25T03:00:51.370Z,19.63
2022-08-25T03:03:20.780Z,19.65
2022-08-25T03:05:49.572Z,19.70
2022-08-25T03:08:18.034Z,19.73
2022-08-25T03:10:47.400Z,19.75
2022-08-25T03:13:16.864Z,19.67
2022-08-25T03:15:45.901Z,19.69
2022-08-25T03:18:17.263Z,19.65
2022-08-25T03:20:45.832Z,19.66
2022-08-25T03:23:14.337Z,19.68
2022-08-25T03:26:01.189Z,19.72
2022-08-25T03:28:33.050Z,19.65
2022-08-25T03:31:04.304Z,19.58
2022-08-25T03:33:33.262Z,19.52
2022-08-25T03:36:01.796Z,19.54
2022-08-25T03:38:30.306Z,19.54
2022-08-25T03:40:58.822Z,19.46
2022-08-25T03:43:27.363Z,19.38
2022-08-25T03:45:55.986Z,19.34
2022-08-25T03:48:25.113Z,19.31
2022-08-25T03:50:54.838Z,19.35
2022-08-25T03:53:23.159Z,19.37
2022-08-25T03:55:51.674Z,19.33
2022-08-25T03:58:20.127Z,19.31
2022-08-25T04:00:48.617Z,19.29
2022-08-25T04:03:17.102Z,19.31
2022-08-25T04:05:46.061Z,19.28
2022-08-25T04:08:14.845Z,19.25
2022-08-25T04:10:43.430Z,19.22
2022-08-25T04:13:12.296Z,19.22
2022-08-25T04:15:44.687Z,19.20
2022-08-25T04:18:13.406Z,19.17
2022-08-25T04:20:46.939Z,19.17
2022-08-25T04:23:15.479Z,19.18
2022-08-25T04:25:43.928Z,19.21
2022-08-25T04:28:14.706Z,19.27
2022-08-25T04:30:46.410Z,19.27
2022-08-25T04:33:17.592Z,19.28
2022-08-25T04:35:50.670Z,19.30
2022-08-25T04:38:19.147Z,19.28
2022-08-25T04:40:47.560Z,19.28
2022-08-25T04:43:15.946Z,19.31
2022-08-25T04:45:44.514Z,19.33
2022-08-25T04:48:12.963Z,19.34
2022-08-25T04:50:41.579Z,19.40
2022-08-25T04:53:10.138Z,19.45
2022-08-25T04:55:49.619Z,19.43
2022-08-25T04:58:18.447Z,19.48
2022-08-25T05:00:47.995Z,19.47
2022-08-25T05:03:17.429Z,19.46
2022-08-25T05:05:45.876Z,19.48
2022-08-25T05:08:14.282Z,19.48
2022-08-25T05:10:43.180Z,19.55
2022-08-25T05:13:12.311Z,19.59
2022-08-25T05:15:53.269Z,19.65
2022-08-25T05:18:23.885Z,19.71
2022-08-25T05:20:54.359Z,19.82
2022-08-25T05:23:25.219Z,19.87
2022-08-25T05:25:54.315Z,19.96
2022-08-25T05:28:23.239Z,20.04
2022-08-25T05:30:51.630Z,20.11
2022-08-25T05:33:20.316Z,20.10
2022-08-25T05:35:48.760Z,20.22
2022-08-25T05:38:20.123Z,20.27
2022-08-25T05:40:48.532Z,20.35
2022-08-25T05:43:17.108Z,20.53
2022-08-25T05:45:46.648Z,20.61
2022-08-25T05:48:15.611Z,20.66
2022-08-25T05:50:44.117Z,20.81
2022-08-25T05:53:12.468Z,20.86
2022-08-25T05:55:44.947Z,21.02
2022-08-25T05:58:13.917Z,21.13
2022-08-25T06:00:43.130Z,21.31
2022-08-25T06:03:10.826Z,21.45
2022-08-25T06:05:39.639Z,21.51
2022-08-25T06:08:08.062Z,21.58
2022-08-25T06:10:36.840Z,21.64
2022-08-25T06:13:06.526Z,21.74
2022-08-25T06:15:35.065Z,21.82
2022-08-25T06:18:03.710Z,21.94
2022-08-25T06:20:33.072Z,22.08
2022-08-25T06:23:01.591Z,22.15
2022-08-25T06:25:32.740Z,22.34
2022-08-25T06:28:01.155Z,22.47
2022-08-25T06:30:29.700Z,22.61
2022-08-25T06:32:58.258Z,22.68
2022-08-25T06:35:27.807Z,22.82
2022-08-25T06:37:56.276Z,22.95
2022-08-25T06:40:25.963Z,23.06
2022-08-25T06:42:54.486Z,23.11
2022-08-25T06:45:23.186Z,23.21
2022-08-25T06:47:52.830Z,23.23
2022-08-25T06:50:21.647Z,23.13
2022-08-25T06:52:50.054Z,23.20
2022-08-25T06:55:18.692Z,23.30
2022-08-25T06:57:47.091Z,23.24
2022-08-25T07:00:17.462Z,23.37
2022-08-25T07:02:47.175Z,23.46
2022-08-25T07:05:26.885Z,23.63
2022-08-25T07:08:02.285Z,23.67
2022-08-25T07:10:30.715Z,23.60
2022-08-25T07:13:00.167Z,23.67
2022-08-25T07:15:28.595Z,23.75
2022-08-25T07:17:59.020Z,23.85
2022-08-25T07:20:27.546Z,23.91
2022-08-25T07:22:57.036Z,23.89
2022-08-25T07:25:25.913Z,23.90
2022-08-25T07:27:58.591Z,24.04
2022-08-25T07:30:27.587Z,23.98
2022-08-25T07:32:55.956Z,24.10
2022-08-25T07:35:26.265Z,24.03
2022-08-25T07:37:58.130Z,24.13
2022-08-25T07:40:33.000Z,24.13
2022-08-25T07:43:06.257Z,24.08
2022-08-25T07:45:42.101Z,24.12
2022-08-25T07:48:19.765Z,24.14
2022-08-25T07:50:49.910Z,24.25
2022-08-25T07:53:19.054Z,24.23
2022-08-25T07:55:47.429Z,24.29
2022-08-25T07:58:16.577Z,24.42
2022-08-25T08:00:48.540Z,24.51
2022-08-25T08:03:35.483Z,24.69
2022-08-25T08:06:13.343Z,24.91
2022-08-25T08:08:45.396Z,25.05
2022-08-25T08:11:23.942Z,25.19
2022-08-25T08:13:52.552Z,25.30
2022-08-25T08:16:23.619Z,25.32
2022-08-25T08:18:52.454Z,25.23
2022-08-25T08:21:28.912Z,25.11
2022-08-25T08:23:59.299Z,25.05
2022-08-25T08:26:48.155Z,25.09
2022-08-25T08:29:20.103Z,25.17
2022-08-25T08:31:50.903Z,25.14
2022-08-25T08:34:19.378Z,25.23
2022-08-25T08:36:47.811Z,25.33
2022-08-25T08:39:16.190Z,25.56
2022-08-25T08:42:22.394Z,25.66
2022-08-25T08:45:31.172Z,25.76
2022-08-25T08:48:32.376Z,25.82
2022-08-25T08:51:13.480Z,25.95
2022-08-25T08:53:45.472Z,26.06
2022-08-25T08:56:30.697Z,25.98
2022-08-25T08:59:30.277Z,25.97
2022-08-25T09:02:04.186Z,26.05
2022-08-25T09:05:00.241Z,26.15
2022-08-25T09:07:38.156Z,26.11
2022-08-25T09:10:11.718Z,26.12
2022-08-25T09:13:11.245Z,26.15
2022-08-25T09:16:01.270Z,26.28
2022-08-25T09:18:50.932Z,26.37
2022-08-25T09:22:33.462Z,26.46
2022-08-25T09:24:54.254Z,26.54
2022-08-25T09:27:41.358Z,26.61
2022-08-25T09:30:17.196Z,26.67
2022-08-25T09:32:53.681Z,26.76
2022-08-25T09:35:23.326Z,26.65
2022-08-25T09:38:01.590Z,26.66
2022-08-25T09:40:33.850Z,26.67
2022-08-25T09:43:06.093Z,26.67
2022-08-25T09:45:48.852Z,26.69
2022-08-25T09:48:44.401Z,26.66
2022-08-25T09:51:42.142Z,26.61
2022-08-25T09:54:14.360Z,26.50
2022-08-25T09:56:57.700Z,26.50
2022-08-25T09:59:35.123Z,26.43
2022-08-25T10:02:28.873Z,26.38
2022-08-25T10:04:57.728Z,26.39
2022-08-25T10:07:56.551Z,26.32
2022-08-25T10:10:33.236Z,26.28
2022-08-25T10:13:06.167Z,26.23
2022-08-25T10:15:38.821Z,26.18
2022-08-25T10:18:30.536Z,26.27
2022-08-25T10:21:17.541Z,26.40
2022-08-25T10:23:55.930Z,26.43
2022-08-25T10:27:11.599Z,26.35
2022-08-25T10:30:06.350Z,26.33
2022-08-25T10:33:19.247Z,26.42
2022-08-25T10:36:20.591Z,26.36
2022-08-25T10:38:58.462Z,26.41
2022-08-25T10:42:19.193Z,26.42
2022-08-25T10:45:34.751Z,26.63
2022-08-25T10:48:30.372Z,26.68
2022-08-25T10:51:25.419Z,26.70
2022-08-25T10:54:29.414Z,26.77
2022-08-25T10:57:37.500Z,26.75
2022-08-25T11:00:14.513Z,26.79
2022-08-25T11:02:44.985Z,26.88
2022-08-25T11:05:42.109Z,26.92
2022-08-25T11:08:39.211Z,27.01
2022-08-25T11:11:21.877Z,27.19
2022-08-25T11:14:09.262Z,27.26
2022-08-25T11:17:21.207Z,27.60
2022-08-25T11:19:53.437Z,27.58
2022-08-25T11:22:39.749Z,27.61
2022-08-25T11:25:34.475Z,27.56
2022-08-25T11:28:28.345Z,27.55
2022-08-25T11:31:00.333Z,27.49
2022-08-25T11:33:31.172Z,27.47
2022-08-25T11:36:13.720Z,27.49
2022-08-25T11:39:06.829Z,27.48
2022-08-25T11:41:43.397Z,27.62
2022-08-25T11:44:57.927Z,27.79
2022-08-25T11:47:36.114Z,27.82
2022-08-25T11:50:29.842Z,27.66
2022-08-25T11:53:23.706Z,27.63
2022-08-25T11:56:02.408Z,27.56
2022-08-25T11:58:45.403Z,27.51
2022-08-25T12:01:33.660Z,27.67
2022-08-25T12:04:16.111Z,27.77
2022-08-25T12:07:10.957Z,27.75
2022-08-25T12:10:07.964Z,27.69
2022-08-25T12:12:57.279Z,27.67
2022-08-25T12:15:32.831Z,27.64
2022-08-25T12:18:22.938Z,27.60
2022-08-25T12:20:56.758Z,27.50
2022-08-25T12:23:45.071Z,27.48
2022-08-25T12:26:47.367Z,27.56
2022-08-25T12:29:25.445Z,27.50
2022-08-25T12:32:15.935Z,27.43
2022-08-25T12:34:46.863Z,27.45
2022-08-25T12:37:24.641Z,27.43
2022-08-25T12:39:58.678Z,27.48
2022-08-25T12:42:33.413Z,27.55
2022-08-25T12:45:23.893Z,27.63
2022-08-25T12:47:57.641Z,27.70
2022-08-25T12:50:41.696Z,27.78
2022-08-25T12:53:40.586Z,27.80
2022-08-25T12:56:37.539Z,27.72
2022-08-25T12:59:22.942Z,27.72
2022-08-25T13:02:30.551Z,27.68
2022-08-25T13:05:07.368Z,27.61
2022-08-25T13:08:19.385Z,27.57
2022-08-25T13:10:57.758Z,27.58
2022-08-25T13:13:47.402Z,27.51
2022-08-25T13:16:27.064Z,27.45
2022-08-25T13:19:01.569Z,27.55
2022-08-25T13:21:39.437Z,27.66
2022-08-25T13:24:18.532Z,27.74
2022-08-25T13:26:48.003Z,27.87
2022-08-25T13:29:25.618Z,27.97
2022-08-25T13:32:09.678Z,28.11
2022-08-25T13:34:42.796Z,28.23
2022-08-25T13:37:29.773Z,28.24
2022-08-25T13:40:29.511Z,28.50
2022-08-25T13:43:06.643Z,28.56
2022-08-25T13:45:42.534Z,28.60
2022-08-25T13:48:23.105Z,28.61
2022-08-25T13:50:53.123Z,28.55
2022-08-25T13:53:30.492Z,28.40
2022-08-25T13:56:02.982Z,28.38
2022-08-25T13:58:44.860Z,28.35
2022-08-25T14:01:45.125Z,28.43
2022-08-25T14:04:51.104Z,28.35
2022-08-25T14:07:22.824Z,28.41
2022-08-25T14:10:00.151Z,28.31
2022-08-25T14:12:45.458Z,28.38
2022-08-25T14:15:33.387Z,28.43
2022-08-25T14:18:32.449Z,28.50
2022-08-25T14:21:10.786Z,28.57
2022-08-25T14:23:40.613Z,28.53
2022-08-25T14:26:08.703Z,28.57
2022-08-25T14:28:38.374Z,28.59
2022-08-25T14:31:16.569Z,28.78
2022-08-25T14:33:59.528Z,28.94
2022-08-25T14:36:30.412Z,28.97
2022-08-25T14:38:59.466Z,28.88
2022-08-25T14:41:29.598Z,28.82
2022-08-25T14:43:57.691Z,28.70
2022-08-25T14:46:32.100Z,28.63
2022-08-25T14:49:05.056Z,28.63
2022-08-25T14:51:36.216Z,28.64
2022-08-25T14:54:08.102Z,28.69
2022-08-25T14:56:37.679Z,28.71
2022-08-25T14:59:07.588Z,28.70
2022-08-25T15:01:36.467Z,28.66
2022-08-25T15:04:06.835Z,28.60
2022-08-25T15:06:37.365Z,28.64
2022-08-25T15:09:11.247Z,28.64
2022-08-25T15:11:46.316Z,28.63
2022-08-25T15:14:17.375Z,28.65
2022-08-25T15:16:53.662Z,28.63
2022-08-25T15:19:25.329Z,28.60
2022-08-25T15:21:53.918Z,28.53
2022-08-25T15:24:26.770Z,28.47
2022-08-25T15:27:01.922Z,28.44
2022-08-25T15:29:32.034Z,28.40
2022-08-25T15:32:01.181Z,28.39
2022-08-25T15:34:31.260Z,28.43
2022-08-25T15:37:01.163Z,28.59
2022-08-25T15:39:30.902Z,28.61
2022-08-25T15:41:59.305Z,28.68
2022-08-25T15:44:29.775Z,28.79
2022-08-25T15:46:59.493Z,28.77
2022-08-25T15:49:31.373Z,28.67
2022-08-25T15:52:00.335Z,28.53
2022-08-25T15:54:30.456Z,28.42
2022-08-25T15:56:59.800Z,28.41
2022-08-25T15:59:29.342Z,28.34
2022-08-25T16:01:58.089Z,28.33
2022-08-25T16:04:28.618Z,28.26
2022-08-25T16:06:57.241Z,28.19
2022-08-25T16:09:27.180Z,28.20
2022-08-25T16:11:56.636Z,28.28
2022-08-25T16:14:28.001Z,28.34
2022-08-25T16:16:58.327Z,28.42
2022-08-25T16:19:28.552Z,28.55
2022-08-25T16:21:57.250Z,28.55
2022-08-25T16:24:26.298Z,28.67
2022-08-25T16:27:00.269Z,28.69
2022-08-25T16:29:41.934Z,28.66
2022-08-25T16:32:11.209Z,28.65
2022-08-25T16:34:41.987Z,28.58
2022-08-25T16:37:10.814Z,28.56
2022-08-25T16:39:44.085Z,28.57
2022-08-25T16:42:13.151Z,28.46
2022-08-25T16:44:41.601Z,28.43
2022-08-25T16:47:09.974Z,28.39
2022-08-25T16:49:43.353Z,28.31
2022-08-25T16:52:28.565Z,28.19
2022-08-25T16:55:15.924Z,28.10
2022-08-25T16:57:53.802Z,28.04
2022-08-25T17:00:28.281Z,28.00
2022-08-25T17:03:04.810Z,28.01
2022-08-25T17:05:37.014Z,27.98
2022-08-25T17:08:22.765Z,27.93
2022-08-25T17:10:51.160Z,27.81
2022-08-25T17:13:19.196Z,27.76
2022-08-25T17:15:52.500Z,27.73
2022-08-25T17:18:21.287Z,27.81
2022-08-25T17:20:50.449Z,27.72
2022-08-25T17:23:21.062Z,27.67
2022-08-25T17:25:52.026Z,27.61
2022-08-25T17:28:20.256Z,27.66
2022-08-25T17:30:49.671Z,27.60
2022-08-25T17:33:18.191Z,27.64
2022-08-25T17:35:55.101Z,27.58
2022-08-25T17:38:26.732Z,27.53
2022-08-25T17:41:00.244Z,27.51
2022-08-25T17:43:29.900Z,27.44
2022-08-25T17:45:59.049Z,27.42
2022-08-25T17:48:28.905Z,27.41
2022-08-25T17:51:02.032Z,27.32
2022-08-25T17:53:30.915Z,27.26
2022-08-25T17:56:01.969Z,27.22
2022-08-25T17:58:32.016Z,27.20
2022-08-25T18:01:01.100Z,27.14
2022-08-25T18:03:29.976Z,27.09
2022-08-25T18:05:58.601Z,27.03
2022-08-25T18:08:31.978Z,27.01
2022-08-25T18:11:04.686Z,26.94
2022-08-25T18:13:33.131Z,26.96
2022-08-25T18:16:01.531Z,26.87
2022-08-25T18:18:31.599Z,26.85
2022-08-25T18:21:00.033Z,26.74
2022-08-25T18:23:29.166Z,26.74
2022-08-25T18:26:01.002Z,26.68
2022-08-25T18:28:30.244Z,26.61
2022-08-25T18:30:58.901Z,26.58
2022-08-25T18:33:29.943Z,26.59
2022-08-25T18:35:58.972Z,26.55
2022-08-25T18:38:45.439Z,26.45
2022-08-25T18:41:14.570Z,26.39
2022-08-25T18:43:43.011Z,26.34
2022-08-25T18:46:11.755Z,26.26
2022-08-25T18:48:40.191Z,26.21
2022-08-25T18:51:10.560Z,26.20
2022-08-25T18:53:50.341Z,26.14
2022-08-25T18:56:19.969Z,26.17
2022-08-25T18:58:49.144Z,26.10
2022-08-25T19:01:19.111Z,25.97
2022-08-25T19:03:47.990Z,25.92
2022-08-25T19:06:16.774Z,25.86
2022-08-25T19:08:45.208Z,25.86
2022-08-25T19:11:13.794Z,25.80
2022-08-25T19:13:42.571Z,25.78
2022-08-25T19:16:11.893Z,25.78
2022-08-25T19:18:42.777Z,25.74
2022-08-25T19:21:11.736Z,25.70
2022-08-25T19:23:40.178Z,25.71
2022-08-25T19:26:17.026Z,25.63
2022-08-25T19:28:48.847Z,25.61
2022-08-25T19:31:19.725Z,25.54
2022-08-25T19:33:53.792Z,25.51
2022-08-25T19:36:28.889Z,25.42
2022-08-25T19:39:00.204Z,25.35
2022-08-25T19:41:31.292Z,25.29
2022-08-25T19:43:59.847Z,25.19
2022-08-25T19:46:36.101Z,25.20
2022-08-25T19:49:28.377Z,25.17
2022-08-25T19:52:05.520Z,25.19
2022-08-25T19:54:46.131Z,25.15
2022-08-25T19:57:27.881Z,25.16
2022-08-25T20:00:08.342Z,25.11
2022-08-25T20:02:36.902Z,25.03
2022-08-25T20:05:06.230Z,25.03
2022-08-25T20:07:35.561Z,24.94
2022-08-25T20:10:05.283Z,24.92
2022-08-25T20:12:35.518Z,24.88
2022-08-25T20:15:04.413Z,24.87
2022-08-25T20:17:33.545Z,24.80
2022-08-25T20:20:07.130Z,24.88
2022-08-25T20:22:36.794Z,24.80
2022-08-25T20:25:15.282Z,24.71
2022-08-25T20:27:50.740Z,24.68
2022-08-25T20:30:26.137Z,24.67
2022-08-25T20:32:56.561Z,24.61
2022-08-25T20:35:27.415Z,24.65
2022-08-25T20:38:00.348Z,24.57
2022-08-25T20:40:31.165Z,24.54
2022-08-25T20:43:03.298Z,24.45
2022-08-25T20:45:31.781Z,24.43
2022-08-25T20:48:00.357Z,24.40
2022-08-25T20:50:29.469Z,24.37
2022-08-25T20:52:58.834Z,24.28
2022-08-25T20:55:29.359Z,24.29
2022-08-25T20:57:57.817Z,24.26
2022-08-25T21:00:26.445Z,24.24
2022-08-25T21:02:55.008Z,24.15
2022-08-25T21:05:23.584Z,24.13
2022-08-25T21:07:52.107Z,24.07
2022-08-25T21:10:20.609Z,24.05
2022-08-25T21:12:53.317Z,24.05
2022-08-25T21:15:30.107Z,24.11
2022-08-25T21:17:58.744Z,24.10
2022-08-25T21:20:28.293Z,24.01
2022-08-25T21:22:56.805Z,23.97
2022-08-25T21:25:25.320Z,23.86
2022-08-25T21:27:53.729Z,23.88
2022-08-25T21:30:22.366Z,23.93
2022-08-25T21:33:03.563Z,23.93
2022-08-25T21:35:32.055Z,23.86
2022-08-25T21:38:00.532Z,23.81
2022-08-25T21:40:31.397Z,23.74
2022-08-25T21:42:59.820Z,23.66
2022-08-25T21:45:28.233Z,23.61
2022-08-25T21:48:04.589Z,23.54
2022-08-25T21:50:34.254Z,23.50
2022-08-25T21:53:02.687Z,23.47
2022-08-25T21:55:31.543Z,23.42
2022-08-25T21:58:03.431Z,23.36
2022-08-25T22:00:32.547Z,23.31
2022-08-25T22:03:01.308Z,23.25
2022-08-25T22:05:29.932Z,23.31
2022-08-25T22:07:58.351Z,23.21
2022-08-25T22:10:27.572Z,23.17
2022-08-25T22:12:56.106Z,23.10
2022-08-25T22:15:25.167Z,23.09
2022-08-25T22:17:53.572Z,23.08
2022-08-25T22:20:22.034Z,23.00
2022-08-25T22:22:50.399Z,23.03
2022-08-25T22:25:18.912Z,23.01
2022-08-25T22:27:47.975Z,22.99
2022-08-25T22:30:29.540Z,22.92
2022-08-25T22:32:59.489Z,22.86
2022-08-25T22:35:28.696Z,22.86
2022-08-25T22:37:57.136Z,22.80
2022-08-25T22:40:27.733Z,22.78
2022-08-25T22:42:57.537Z,22.70
2022-08-25T22:45:27.593Z,22.62
2022-08-25T22:47:56.397Z,22.56
2022-08-25T22:50:24.802Z,22.48
2022-08-25T22:52:54.398Z,22.45
2022-08-25T22:55:22.947Z,22.45
2022-08-25T22:57:54.812Z,22.43
2022-08-25T23:00:23.550Z,22.37
2022-08-25T23:02:53.675Z,22.31
2022-08-25T23:05:22.236Z,22.28
2022-08-25T23:07:51.108Z,22.28
2022-08-25T23:10:20.788Z,22.27
2022-08-25T23:12:49.189Z,22.28
2022-08-25T23:15:17.616Z,22.28
2022-08-25T23:17:46.072Z,22.27
2022-08-25T23:20:31.803Z,22.26
2022-08-25T23:23:01.650Z,22.30
2022-08-25T23:25:30.256Z,22.28
2022-08-25T23:27:58.800Z,22.27
2022-08-25T23:30:27.828Z,22.27
2022-08-25T23:32:58.916Z,22.22
2022-08-25T23:35:27.354Z,22.22
2022-08-25T23:37:58.016Z,22.16
2022-08-25T23:40:27.754Z,22.13
2022-08-25T23:42:56.167Z,22.11
2022-08-25T23:45:24.601Z,22.08
2022-08-25T23:47:54.361Z,22.12
2022-08-25T23:50:22.963Z,22.10
2022-08-25T23:52:53.376Z,22.12
2022-08-25T23:55:21.934Z,22.06
2022-08-25T23:57:51.504Z,22.02
